LIPH/TSF METAR and TAF weather

Enter ICAO airport designator
Station Type Date Time Source
LIPH METAR 2020/09/23 02:50 UTC NOAA

LIPH 230250Z AUTO 05003KT 020V080 9000 FEW006/// BKN054/// BKN076/// 18/18 Q1010


Station Type Date Time Source
LIPH Decoded METAR 2020/09/23 02:50 UTC NOAA

Treviso / S. Angelo, Italy (LIPH) 45-39N 012-11E 23M
Sep 22, 2020 - 10:50 PM EDT / 2020.09.23 0250 UTC
Wind: from the NE (050 degrees) at 3 MPH (3 KT) (direction variable):0
Visibility: 5 mile(s):0
Sky conditions: mostly cloudy
Temperature: 64 F (18 C)
Dew Point: 64 F (18 C)
Relative Humidity: 100%
Pressure (altimeter): 29.83 in. Hg (1010 hPa)
ob: LIPH 230250Z AUTO 05003KT 020V080 9000 FEW006/// BKN054/// BKN076/// 18/18 Q1010
cycle: 3

Station Type Date Time Source
LIPH TAF 2020/09/22 18:21 UTC NOAA

TAF LIPH 221700Z 2218/2318 VRB05KT 9999 SCT050
TEMPO 2218/2222 4000 TSRA PROB40
TEMPO 2310/2318 TSRA

Example: see airport list